createdAt,value
2022-10-25T00:01:53.694Z,101156.94
2022-10-25T00:06:47.643Z,101158.97
2022-10-25T00:09:14.156Z,101159.81
2022-10-25T00:11:40.655Z,101157.94
2022-10-25T00:14:08.032Z,101157.09
2022-10-25T00:16:37.504Z,101170.56
2022-10-25T00:19:04.998Z,101165.31
2022-10-25T00:21:31.509Z,101170.56
2022-10-25T00:23:58.063Z,101173.38
2022-10-25T00:26:24.564Z,101169.84
2022-10-25T00:28:54.448Z,101162.78
2022-10-25T00:31:20.915Z,101153.88
2022-10-25T00:33:47.449Z,101168.16
2022-10-25T00:36:20.198Z,101172.72
2022-10-25T00:38:46.989Z,101173.72
2022-10-25T00:41:15.804Z,101175.41
2022-10-25T00:43:45.193Z,101183.47
2022-10-25T00:46:23.970Z,101186.28
2022-10-25T00:49:02.970Z,101179.22
2022-10-25T00:51:37.314Z,101187.16
2022-10-25T00:54:04.452Z,101186.16
2022-10-25T00:56:35.839Z,101185.44
2022-10-25T00:59:06.613Z,101184.47
2022-10-25T01:01:33.722Z,101190.69
2022-10-25T01:04:04.738Z,101184.47
2022-10-25T01:06:43.029Z,101181.91
2022-10-25T01:09:13.641Z,101188.97
2022-10-25T01:11:40.186Z,101182.75
2022-10-25T01:14:09.205Z,101197.91
2022-10-25T01:17:03.057Z,101196.19
2022-10-25T01:19:42.219Z,101196.19
2022-10-25T01:22:22.911Z,101198.06
2022-10-25T01:25:30.905Z,101207.97
2022-10-25T01:28:00.421Z,101205.28
2022-10-25T01:30:58.319Z,101205.44
2022-10-25T01:33:47.040Z,101202.75
2022-10-25T01:36:30.391Z,101208.97
2022-10-25T01:39:09.168Z,101203.72
2022-10-25T01:41:55.884Z,101201.91
2022-10-25T01:44:46.308Z,101210.94
2022-10-25T01:47:19.834Z,101208.25
2022-10-25T01:50:02.652Z,101219.03
2022-10-25T01:52:29.145Z,101223.56
2022-10-25T01:54:55.599Z,101219.03
2022-10-25T01:57:34.228Z,101215.66
2022-10-25T02:00:03.572Z,101223.72
2022-10-25T02:02:44.713Z,101219.34
2022-10-25T02:05:37.371Z,101215.78
2022-10-25T02:08:32.778Z,101220.31
2022-10-25T02:11:23.530Z,101217.81
2022-10-25T02:14:05.856Z,101216.78
2022-10-25T02:16:38.094Z,101220.50
2022-10-25T02:19:08.805Z,101220.50
2022-10-25T02:21:37.051Z,101223.00
2022-10-25T02:24:16.125Z,101234.94
2022-10-25T02:26:44.408Z,101225.88
2022-10-25T02:29:12.531Z,101227.72
2022-10-25T02:31:39.453Z,101228.72
2022-10-25T02:34:06.347Z,101232.25
2022-10-25T02:36:32.831Z,101234.09
2022-10-25T02:39:00.098Z,101235.91
2022-10-25T02:41:26.784Z,101235.91
2022-10-25T02:43:53.264Z,101233.22
2022-10-25T02:46:22.174Z,101231.53
2022-10-25T02:48:49.522Z,101229.84
2022-10-25T02:51:16.741Z,101243.13
2022-10-25T02:53:43.663Z,101231.72
2022-10-25T02:56:16.168Z,101239.59
2022-10-25T02:58:44.067Z,101244.97
2022-10-25T03:01:11.182Z,101249.50
2022-10-25T03:03:37.986Z,101255.06
2022-10-25T03:06:04.631Z,101252.22
2022-10-25T03:08:31.129Z,101259.44
2022-10-25T03:10:57.686Z,101262.28
2022-10-25T03:13:24.270Z,101260.28
2022-10-25T03:15:50.713Z,101254.06
2022-10-25T03:18:17.675Z,101261.28
2022-10-25T03:20:44.663Z,101270.19
2022-10-25T03:23:12.236Z,101276.41
2022-10-25T03:25:38.749Z,101280.09
2022-10-25T03:28:05.379Z,101278.41
2022-10-25T03:30:32.169Z,101281.09
2022-10-25T03:32:58.951Z,101279.38
2022-10-25T03:35:26.168Z,101284.75
2022-10-25T03:37:52.864Z,101280.22
2022-10-25T03:40:20.436Z,101294.53
2022-10-25T03:42:47.067Z,101291.97
2022-10-25T03:45:13.626Z,101300.88
2022-10-25T03:47:40.472Z,101308.94
2022-10-25T03:50:07.607Z,101306.25
2022-10-25T03:52:34.449Z,101304.56
2022-10-25T03:55:00.921Z,101314.66
2022-10-25T03:57:27.376Z,101310.97
2022-10-25T03:59:53.908Z,101313.66
2022-10-25T04:02:20.521Z,101320.03
2022-10-25T04:04:46.979Z,101320.03
2022-10-25T04:07:13.419Z,101319.16
2022-10-25T04:09:39.963Z,101320.16
2022-10-25T04:12:06.447Z,101324.69
2022-10-25T04:14:32.947Z,101331.75
2022-10-25T04:16:59.408Z,101326.69
2022-10-25T04:19:25.873Z,101328.38
2022-10-25T04:21:52.351Z,101330.22
2022-10-25T04:24:18.984Z,101324.00
2022-10-25T04:26:45.472Z,101328.50
2022-10-25T04:29:12.519Z,101332.06
2022-10-25T04:31:38.988Z,101337.44
2022-10-25T04:34:05.473Z,101338.41
2022-10-25T04:36:32.005Z,101341.97
2022-10-25T04:38:58.540Z,101340.28
2022-10-25T04:41:25.009Z,101336.75
2022-10-25T04:43:52.223Z,101329.69
2022-10-25T04:46:19.736Z,101338.59
2022-10-25T04:48:46.617Z,101352.03
2022-10-25T04:51:14.019Z,101355.72
2022-10-25T04:53:40.933Z,101361.22
2022-10-25T04:56:10.035Z,101369.28
2022-10-25T04:58:37.273Z,101369.16
2022-10-25T05:01:10.282Z,101362.91
2022-10-25T05:03:36.824Z,101379.91
2022-10-25T05:06:17.352Z,101384.41
2022-10-25T05:08:45.888Z,101382.72
2022-10-25T05:11:13.808Z,101375.38
2022-10-25T05:13:41.597Z,101380.88
2022-10-25T05:16:11.160Z,101367.44
2022-10-25T05:18:37.616Z,101362.06
2022-10-25T05:21:05.817Z,101362.06
2022-10-25T05:23:34.240Z,101377.34
2022-10-25T05:26:08.029Z,101377.34
2022-10-25T05:28:36.256Z,101388.09
2022-10-25T05:31:07.874Z,101379.34
2022-10-25T05:33:34.520Z,101381.88
2022-10-25T05:36:02.175Z,101382.88
2022-10-25T05:38:32.013Z,101382.16
2022-10-25T05:41:00.842Z,101384.00
2022-10-25T05:43:27.458Z,101396.59
2022-10-25T05:46:21.590Z,101395.75
2022-10-25T05:48:49.433Z,101395.75
2022-10-25T05:51:33.130Z,101396.44
2022-10-25T05:54:11.806Z,101405.50
2022-10-25T05:56:39.048Z,101409.88
2022-10-25T05:59:11.131Z,101409.88
2022-10-25T06:01:40.258Z,101418.94
2022-10-25T06:04:07.818Z,101413.56
2022-10-25T06:06:34.920Z,101424.31
2022-10-25T06:09:02.036Z,101426.00
2022-10-25T06:11:30.030Z,101420.63
2022-10-25T06:13:56.579Z,101416.25
2022-10-25T06:16:23.389Z,101422.47
2022-10-25T06:18:50.182Z,101426.00
2022-10-25T06:21:19.555Z,101426.00
2022-10-25T06:23:47.538Z,101434.22
2022-10-25T06:26:17.370Z,101439.75
2022-10-25T06:28:44.318Z,101444.97
2022-10-25T06:31:16.296Z,101449.50
2022-10-25T06:33:43.483Z,101461.09
2022-10-25T06:36:16.353Z,101459.41
2022-10-25T06:38:46.538Z,101462.09
2022-10-25T06:41:15.806Z,101454.88
2022-10-25T06:43:42.315Z,101456.72
2022-10-25T06:46:18.023Z,101460.25
2022-10-25T06:48:44.555Z,101451.47
2022-10-25T06:51:11.017Z,101463.94
2022-10-25T06:53:38.356Z,101469.31
2022-10-25T06:56:09.431Z,101474.69
2022-10-25T06:58:40.096Z,101469.31
2022-10-25T07:01:10.090Z,101472.84
2022-10-25T07:03:37.008Z,101474.69
2022-10-25T07:06:11.891Z,101472.97
2022-10-25T07:08:40.762Z,101472.97
2022-10-25T07:11:09.111Z,101478.34
2022-10-25T07:13:35.622Z,101489.97
2022-10-25T07:16:07.593Z,101494.47
2022-10-25T07:18:35.651Z,101491.78
2022-10-25T07:21:03.869Z,101496.19
2022-10-25T07:23:30.672Z,101496.19
2022-10-25T07:25:58.034Z,101501.56
2022-10-25T07:28:24.800Z,101498.03
2022-10-25T07:30:51.593Z,101511.31
2022-10-25T07:33:19.707Z,101508.63
2022-10-25T07:35:59.046Z,101506.78
2022-10-25T07:38:33.007Z,101514.69
2022-10-25T07:40:59.860Z,101512.88
2022-10-25T07:43:27.326Z,101520.06
2022-10-25T07:45:54.218Z,101515.41
2022-10-25T07:48:21.261Z,101517.25
2022-10-25T07:50:48.184Z,101515.41
2022-10-25T07:53:14.710Z,101524.31
2022-10-25T07:55:41.183Z,101522.47
2022-10-25T07:58:10.957Z,101527.84
2022-10-25T08:00:37.466Z,101519.78
2022-10-25T08:03:04.191Z,101533.09
2022-10-25T08:05:30.796Z,101539.31
2022-10-25T08:07:57.394Z,101535.78
2022-10-25T08:10:23.970Z,101537.47
2022-10-25T08:12:51.305Z,101543.69
2022-10-25T08:15:18.353Z,101540.00
2022-10-25T08:17:45.144Z,101544.53
2022-10-25T08:20:12.376Z,101549.91
2022-10-25T08:22:38.844Z,101547.22
2022-10-25T08:25:05.867Z,101549.78
2022-10-25T08:27:32.536Z,101538.16
2022-10-25T08:29:59.076Z,101543.53
2022-10-25T08:32:25.573Z,101556.84
2022-10-25T08:34:52.032Z,101554.16
2022-10-25T08:37:18.510Z,101563.06
2022-10-25T08:39:44.995Z,101563.06
2022-10-25T08:42:21.973Z,101565.75
2022-10-25T08:45:04.143Z,101567.44
2022-10-25T08:47:38.552Z,101572.69
2022-10-25T08:50:37.093Z,101573.53
2022-10-25T08:53:08.988Z,101568.00
2022-10-25T08:55:41.798Z,101580.44
2022-10-25T08:58:20.597Z,101587.38
2022-10-25T09:00:49.064Z,101588.06
2022-10-25T09:03:25.636Z,101585.38
2022-10-25T09:06:14.426Z,101590.63
2022-10-25T09:08:57.934Z,101586.94
2022-10-25T09:11:30.245Z,101597.53
2022-10-25T09:14:26.074Z,101596.69
2022-10-25T09:16:57.206Z,101595.56
2022-10-25T09:19:34.604Z,101598.09
2022-10-25T09:22:05.429Z,101594.28
2022-10-25T09:24:54.012Z,101596.81
2022-10-25T09:27:48.482Z,101595.41
2022-10-25T09:30:15.613Z,101592.31
2022-10-25T09:32:44.727Z,101592.03
2022-10-25T09:35:20.539Z,101603.34
2022-10-25T09:37:55.491Z,101602.91
2022-10-25T09:40:25.516Z,101607.97
2022-10-25T09:43:01.422Z,101607.56
2022-10-25T09:45:51.937Z,101613.47
2022-10-25T09:48:27.603Z,101632.00
2022-10-25T09:51:04.348Z,101621.13
2022-10-25T09:53:33.177Z,101620.97
2022-10-25T09:56:04.755Z,101620.81
2022-10-25T09:58:38.828Z,101617.97
2022-10-25T10:01:12.987Z,101621.34
2022-10-25T10:03:41.229Z,101635.66
2022-10-25T10:06:22.888Z,101640.91
2022-10-25T10:08:53.155Z,101634.53
2022-10-25T10:11:20.664Z,101644.28
2022-10-25T10:14:06.137Z,101650.50
2022-10-25T10:16:42.209Z,101649.66
2022-10-25T10:19:19.331Z,101655.78
2022-10-25T10:21:52.483Z,101649.53
2022-10-25T10:24:34.795Z,101648.69
2022-10-25T10:27:13.420Z,101653.06
2022-10-25T10:29:58.007Z,101651.38
2022-10-25T10:32:29.359Z,101650.50
2022-10-25T10:34:58.219Z,101657.63
2022-10-25T10:37:27.134Z,101651.38
2022-10-25T10:39:53.638Z,101648.53
2022-10-25T10:42:36.556Z,101652.91
2022-10-25T10:45:07.826Z,101659.88
2022-10-25T10:47:56.969Z,101651.63
2022-10-25T10:50:24.264Z,101644.28
2022-10-25T10:53:01.435Z,101651.34
2022-10-25T10:55:36.775Z,101655.59
2022-10-25T10:58:12.224Z,101652.75
2022-10-25T11:00:38.949Z,101652.56
2022-10-25T11:03:05.838Z,101655.16
2022-10-25T11:05:37.811Z,101661.38
2022-10-25T11:08:07.255Z,101663.06
2022-10-25T11:10:35.503Z,101665.59
2022-10-25T11:13:19.816Z,101661.09
2022-10-25T11:16:04.954Z,101660.06
2022-10-25T11:19:08.697Z,101661.75
2022-10-25T11:21:53.883Z,101665.00
2022-10-25T11:24:52.991Z,101663.16
2022-10-25T11:27:36.700Z,101666.56
2022-10-25T11:30:19.924Z,101662.03
2022-10-25T11:33:03.631Z,101670.94
2022-10-25T11:35:45.030Z,101671.63
2022-10-25T11:38:23.710Z,101668.94
2022-10-25T11:41:08.572Z,101677.03
2022-10-25T11:44:02.580Z,101666.25
2022-10-25T11:46:47.524Z,101663.44
2022-10-25T11:49:34.173Z,101666.97
2022-10-25T11:52:19.358Z,101661.41
2022-10-25T11:54:57.917Z,101664.81
2022-10-25T11:57:33.476Z,101654.91
2022-10-25T12:00:19.001Z,101655.75
2022-10-25T12:03:03.794Z,101666.22
2022-10-25T12:05:42.473Z,101672.44
2022-10-25T12:08:38.423Z,101679.53
2022-10-25T12:11:11.837Z,101670.44
2022-10-25T12:13:45.141Z,101673.13
2022-10-25T12:16:15.980Z,101673.00
2022-10-25T12:18:46.216Z,101668.47
2022-10-25T12:21:20.087Z,101670.06
2022-10-25T12:23:52.127Z,101680.66
2022-10-25T12:26:45.396Z,101659.13
2022-10-25T12:29:21.004Z,101657.97
2022-10-25T12:31:56.637Z,101656.81
2022-10-25T12:34:40.233Z,101662.91
2022-10-25T12:37:14.875Z,101677.38
2022-10-25T12:39:46.045Z,101666.44
2022-10-25T12:42:27.101Z,101661.06
2022-10-25T12:45:20.084Z,101656.50
2022-10-25T12:48:03.870Z,101661.06
2022-10-25T12:50:56.796Z,101651.97
2022-10-25T12:53:45.076Z,101657.38
2022-10-25T12:56:32.742Z,101662.75
2022-10-25T12:59:25.787Z,101662.75
2022-10-25T13:02:30.463Z,101658.22
2022-10-25T13:05:50.952Z,101657.22
2022-10-25T13:08:20.091Z,101649.81
2022-10-25T13:10:56.450Z,101658.75
2022-10-25T13:13:26.955Z,101653.38
2022-10-25T13:15:58.820Z,101653.38
2022-10-25T13:18:34.070Z,101667.53
2022-10-25T13:21:02.731Z,101665.69
2022-10-25T13:23:51.411Z,101662.16
2022-10-25T13:26:20.073Z,101660.16
2022-10-25T13:28:51.669Z,101665.69
2022-10-25T13:31:36.465Z,101661.16
2022-10-25T13:34:12.127Z,101662.00
2022-10-25T13:36:55.864Z,101655.78
2022-10-25T13:39:45.269Z,101656.59
2022-10-25T13:42:14.481Z,101663.69
2022-10-25T13:45:03.581Z,101658.47
2022-10-25T13:47:36.693Z,101660.00
2022-10-25T13:50:33.214Z,101660.16
2022-10-25T13:53:05.236Z,101657.31
2022-10-25T13:55:38.328Z,101660.00
2022-10-25T13:58:31.960Z,101662.72
2022-10-25T14:01:17.540Z,101654.47
2022-10-25T14:03:51.197Z,101650.63
2022-10-25T14:06:27.724Z,101650.63
2022-10-25T14:09:19.661Z,101651.59
2022-10-25T14:11:53.413Z,101648.91
2022-10-25T14:14:27.448Z,101648.78
2022-10-25T14:17:22.168Z,101647.06
2022-10-25T14:19:52.432Z,101649.63
2022-10-25T14:22:30.383Z,101639.84
2022-10-25T14:25:03.039Z,101645.25
2022-10-25T14:27:32.451Z,101646.09
2022-10-25T14:30:20.378Z,101642.53
2022-10-25T14:33:01.281Z,101638.00
2022-10-25T14:38:27.744Z,101638.84
2022-10-25T14:41:10.176Z,101630.75
2022-10-25T14:43:38.179Z,101641.53
2022-10-25T14:46:10.561Z,101640.53
2022-10-25T14:48:37.159Z,101639.69
2022-10-25T14:51:19.487Z,101630.75
2022-10-25T14:54:12.196Z,101627.06
2022-10-25T14:56:44.796Z,101627.91
2022-10-25T14:59:22.204Z,101628.06
2022-10-25T15:02:01.728Z,101630.75
2022-10-25T15:04:32.531Z,101633.28
2022-10-25T15:06:59.828Z,101631.59
2022-10-25T15:09:43.231Z,101626.22
2022-10-25T15:12:18.261Z,101627.06
2022-10-25T15:14:47.648Z,101634.31
2022-10-25T15:17:25.024Z,101625.22
2022-10-25T15:20:00.539Z,101618.97
2022-10-25T15:22:41.993Z,101625.22
2022-10-25T15:25:22.164Z,101628.06
2022-10-25T15:27:50.703Z,101627.06
2022-10-25T15:30:39.791Z,101628.91
2022-10-25T15:33:18.255Z,101626.06
2022-10-25T15:36:11.147Z,101632.28
2022-10-25T15:39:05.879Z,101630.59
2022-10-25T15:41:24.166Z,101631.44
2022-10-25T15:43:51.703Z,101628.06
2022-10-25T15:46:28.418Z,101631.78
2022-10-25T15:48:55.196Z,101618.97
2022-10-25T15:51:22.433Z,101621.66
2022-10-25T15:53:50.004Z,101617.28
2022-10-25T15:56:19.398Z,101611.06
2022-10-25T15:58:46.054Z,101602.97
2022-10-25T16:01:12.833Z,101606.50
2022-10-25T16:03:39.452Z,101598.56
2022-10-25T16:06:06.203Z,101599.44
2022-10-25T16:08:32.767Z,101609.34
2022-10-25T16:10:59.492Z,101605.66
2022-10-25T16:13:38.056Z,101611.06
2022-10-25T16:16:21.917Z,101616.28
2022-10-25T16:18:53.034Z,101612.75
2022-10-25T16:21:21.205Z,101619.81
2022-10-25T16:23:48.400Z,101614.44
2022-10-25T16:26:33.661Z,101613.59
2022-10-25T16:29:00.157Z,101610.72
2022-10-25T16:31:26.699Z,101601.66
2022-10-25T16:33:53.175Z,101610.44
2022-10-25T16:36:20.559Z,101606.72
2022-10-25T16:38:47.263Z,101604.44
2022-10-25T16:41:34.042Z,101611.06
2022-10-25T16:44:00.624Z,101619.22
2022-10-25T16:46:27.256Z,101620.47
2022-10-25T16:48:55.866Z,101623.38
2022-10-25T16:51:28.812Z,101619.22
2022-10-25T16:53:56.014Z,101617.44
2022-10-25T16:56:22.912Z,101622.22
2022-10-25T16:58:49.423Z,101613.50
2022-10-25T17:01:44.771Z,101613.88
2022-10-25T17:04:11.999Z,101614.94
2022-10-25T17:06:42.595Z,101607.09
2022-10-25T17:09:10.054Z,101613.84
2022-10-25T17:11:36.613Z,101604.25
2022-10-25T17:14:04.072Z,101608.34
2022-10-25T17:16:30.981Z,101605.16
2022-10-25T17:18:57.521Z,101603.00
2022-10-25T17:21:24.125Z,101603.50
2022-10-25T18:09:41.983Z,101609.81
2022-10-25T18:12:09.529Z,101603.78
2022-10-25T18:14:36.225Z,101607.94
2022-10-25T18:17:03.354Z,101612.28
2022-10-25T18:19:29.830Z,101609.66
2022-10-25T18:22:00.347Z,101609.06
2022-10-25T18:24:29.107Z,101617.06
2022-10-25T18:26:56.130Z,101612.88
2022-10-25T18:29:23.425Z,101615.13
2022-10-25T18:31:50.021Z,101610.13
2022-10-25T18:34:16.526Z,101612.34
2022-10-25T18:36:42.987Z,101615.41
2022-10-25T18:39:09.600Z,101614.44
2022-10-25T18:41:36.243Z,101614.13
2022-10-25T18:44:03.006Z,101620.22
2022-10-25T18:46:31.829Z,101615.50
